Riddle, Oregon
Current Conditions -  °F | °C
As of 1:31 AM on Monday 24 Nov 2014 (Local Time) from KRBG Reporting Station
Haze Haze  
Wind Chill: 39°   Ceiling: 200
Heat Index: 39°   Visibility: 1mi
Dew Point: 37°   Wind: 0mph
Humidity: 93%   Direction: NA
Pressure: 30.4"   Gusts: NA
Location:  42.95°N, 123.36°W
Report Text: KRBG 240931Z AUTO 00000KT 1SM BR VV002 04/03 A3040 RMK AO2 T00390028 TSNO $
Loading
Personal Weather Stations






























Interactive Weather Map New forecast layout! Learn more

10-Day Weather Forecast

Advertisements
Track Severe Weather on mobile